Portada
METAR-TAF:

METAR-TAF

Aeroports :

Wuhan, Xina

latitud: 30-37N, longitud: 114-08E, altitud: 23 m

Observació

L'informe es va fer fa 16 minuts, a les 23:00 UTC
Vent 4 kt del Est/Nord-Est
Temperatura 6°C
Humitat 87%
Pressió 1027 hPa
Visibilitat 10 km o més
sense núvols per sota de 1500 mi sense presència de cumulonimbus.

METAR: ZHHH 132300Z 06002MPS CAVOK 06/04 Q1027 NOSIG

Hora: 07:16 (23:16 UTC)

Pronòstic

L'informe es va fer fa 10 hores i 9 minuts, a les 13:07 UTC
Pronòstic vàlid del 13 a les 18 UTC al 14 a les 18 UTC
Vent 6 kt del Nord/Nord-Est
Visibilitat: 6000 m

TAF: ZHHH 131307Z 1318/1418 02003MPS 6000 NSC TX20/1407Z TN06/1322Z

Observacions i pronòstics meteorològics de més de 4000 aeroports (METAR i TAF).

Les estacions disponibles són els punts grocs i vermells al mapa.

Posi el ratolí al punt desitjat per veure el nom de l'estació.

Feu clic per veure les observacions i els pronòstics meteorològics.

Per canviar el mapa: feu clic els botons verds amb una creu de color negre per apropar; al botó verd amb un guió per allunyar la imatge; o en les fletxes verdes per a mapes adjacents.


METAR-TAF: